Time;durP1;ratioP1;P1;durP2;ratioP2;P2;SDS_P1;SDS_P2;PMS_P1;PMS_P2;Temp;Humidity;BMP_temperature;BMP_pressure;BME280_temperature;BME280_humidity;BME280_pressure;Samples;Min_cycle;Max_cycle;Signal;HPM_P1;HPM_P2
2022/12/20 00:01:15;;;;;;;63.30;37.23;;;;;;;-2.06;77.82;103340.44;1704883;80;21376;-86
2022/12/20 00:03:43;;;;;;;46.90;28.32;;;;;;;-2.04;77.74;103337.52;1671660;82;21088;-86
2022/12/20 00:06:11;;;;;;;43.98;26.25;;;;;;;-2.00;77.77;103328.20;1668493;83;20964;-86
2022/12/20 00:08:37;;;;;;;40.05;24.85;;;;;;;-1.96;77.66;103324.50;1676265;83;21073;-85
2022/12/20 00:11:05;;;;;;;42.67;28.47;;;;;;;-1.90;77.43;103322.16;1676168;83;20969;-85
2022/12/20 00:13:31;;;;;;;45.08;29.95;;;;;;;-1.86;77.37;103324.86;1676475;82;21007;-85
2022/12/20 00:16:15;;;;;;;40.52;26.00;;;;;;;-1.84;77.04;103322.80;1664020;83;20982;-84
2022/12/20 00:18:41;;;;;;;34.43;21.30;;;;;;;-1.83;76.89;103315.95;1678169;82;20882;-84
2022/12/20 00:21:10;;;;;;;30.17;19.10;;;;;;;-1.82;76.65;103304.83;1675228;83;21113;-85
2022/12/20 00:23:37;;;;;;;23.85;17.37;;;;;;;-1.83;76.49;103308.23;1669777;84;20969;-84
2022/12/20 00:26:06;;;;;;;22.45;15.60;;;;;;;-1.88;76.22;103308.08;1684139;84;21043;-85
2022/12/20 00:28:33;;;;;;;21.70;12.98;;;;;;;-1.96;76.26;103308.20;1680646;84;21165;-87
2022/12/20 00:31:01;;;;;;;18.67;13.48;;;;;;;-1.99;76.61;103311.55;1677117;84;21028;-85
2022/12/20 00:33:27;;;;;;;18.27;13.48;;;;;;;-1.97;76.83;103302.62;1675605;84;21145;-84
2022/12/20 00:35:55;;;;;;;17.05;12.10;;;;;;;-1.95;76.65;103297.98;1662828;84;21013;-84
2022/12/20 00:38:24;;;;;;;24.35;13.45;;;;;;;-1.95;76.76;103297.98;1670279;83;21113;-85
2022/12/20 00:41:02;;;;;;;16.12;10.63;;;;;;;-1.93;76.79;103294.19;1683328;84;20921;-83
2022/12/20 00:43:29;;;;;;;19.57;11.28;;;;;;;-1.93;76.93;103291.20;1670744;84;21552;-84
2022/12/20 00:45:56;;;;;;;22.42;11.15;;;;;;;-1.93;76.75;103286.48;1680559;84;21610;-85
2022/12/20 00:48:22;;;;;;;21.40;12.33;;;;;;;-1.95;76.66;103285.55;1672592;83;21602;-86
2022/12/20 00:50:49;;;;;;;23.42;12.37;;;;;;;-1.99;76.24;103282.40;1669351;83;21095;-85
2022/12/20 00:53:16;;;;;;;27.27;13.32;;;;;;;-2.06;76.65;103283.02;1696535;82;20928;-84
2022/12/20 00:55:44;;;;;;;24.57;12.33;;;;;;;-2.07;76.66;103273.11;1666355;83;20918;-85
2022/12/20 00:58:12;;;;;;;23.57;12.40;;;;;;;-2.09;76.43;103278.23;1669812;84;21086;-85
2022/12/20 01:00:39;;;;;;;28.10;12.85;;;;;;;-2.12;75.95;103278.52;1676043;83;20973;-86
2022/12/20 01:03:08;;;;;;;29.92;15.45;;;;;;;-2.16;75.81;103276.23;1676587;84;20973;-85
2022/12/20 01:05:34;;;;;;;22.10;13.03;;;;;;;-2.19;75.56;103277.42;1674827;83;20996;-86
2022/12/20 05:44:14;;;;;;;48.55;23.98;;;;;;;-4.21;80.85;103198.53;1809985;75;20952;-86
2022/12/20 05:46:42;;;;;;;56.40;30.27;;;;;;;-4.12;80.55;103191.22;1798685;78;20938;-85
2022/12/20 05:49:11;;;;;;;55.55;30.35;;;;;;;-4.06;79.99;103200.46;1816088;78;21291;-87
2022/12/20 05:51:39;;;;;;;49.23;25.90;;;;;;;-4.02;79.12;103200.19;1821837;78;21254;-85
2022/12/20 05:54:07;;;;;;;37.55;21.10;;;;;;;-3.99;78.71;103198.61;1803012;78;20874;-84
2022/12/20 05:56:37;;;;;;;34.18;19.45;;;;;;;-3.99;78.11;103197.34;1801053;78;20929;-87
2022/12/20 05:59:04;;;;;;;38.42;19.77;;;;;;;-4.01;77.56;103201.93;1737741;81;21036;-87
2022/12/20 06:01:32;;;;;;;34.25;19.57;;;;;;;-4.03;77.34;103189.05;1743253;81;21470;-86
2022/12/20 06:04:00;;;;;;;33.25;17.40;;;;;;;-3.95;77.35;103194.50;1740549;81;22253;-87
2022/12/20 06:06:31;;;;;;;41.45;20.97;;;;;;;-3.88;77.53;103193.07;1739871;81;21041;-86
2022/12/20 06:08:59;;;;;;;36.15;21.27;;;;;;;-3.84;77.63;103195.82;1747055;81;20993;-86
2022/12/20 06:11:30;;;;;;;41.90;23.07;;;;;;;-3.81;77.77;103185.68;1719599;83;20992;-88
2022/12/20 06:14:07;;;;;;;54.60;28.35;;;;;;;-3.78;77.79;103192.23;1749511;81;21653;-85
2022/12/20 06:16:36;;;;;;;72.10;34.25;;;;;;;-3.72;77.95;103184.31;1716823;83;22266;-86
2022/12/20 06:19:04;;;;;;;65.25;32.98;;;;;;;-3.67;78.09;103189.20;1758995;81;21004;-86
2022/12/20 06:21:32;;;;;;;55.70;31.00;;;;;;;-3.59;78.18;103185.27;1754422;80;21001;-85
2022/12/20 06:24:00;;;;;;;46.65;24.12;;;;;;;-3.56;78.03;103177.69;1700437;83;21025;-85
2022/12/20 06:26:34;;;;;;;49.23;23.75;;;;;;;-3.53;77.97;103181.67;1749780;81;21052;-83
2022/12/20 06:29:00;;;;;;;40.45;21.05;;;;;;;-3.50;77.97;103179.22;1716707;82;21310;-86
2022/12/20 06:31:29;;;;;;;37.93;18.02;;;;;;;-3.49;77.91;103168.16;1773251;80;20917;-86
2022/12/20 06:33:58;;;;;;;36.17;19.82;;;;;;;-3.46;77.89;103166.13;1740215;82;20936;-86
2022/12/20 06:36:29;;;;;;;30.23;19.15;;;;;;;-3.43;78.04;103163.66;1732290;81;21011;-88
2022/12/20 06:38:56;;;;;;;35.92;20.08;;;;;;;-3.38;78.07;103172.02;1748624;81;20930;-86
2022/12/20 06:41:26;;;;;;;37.45;22.70;;;;;;;-3.32;78.13;103172.64;1801838;79;21213;-86
2022/12/20 06:43:53;;;;;;;45.40;23.52;;;;;;;-3.21;78.10;103176.50;1816551;79;20921;-86
2022/12/20 06:46:19;;;;;;;39.67;21.25;;;;;;;-3.14;78.05;103175.05;1815833;77;20893;-87
2022/12/20 06:48:47;;;;;;;31.40;18.23;;;;;;;-3.05;77.92;103175.37;1817705;78;20877;-87
2022/12/20 06:51:16;;;;;;;30.88;17.42;;;;;;;-2.96;77.83;103179.98;1805473;78;20920;-86
2022/12/20 06:53:42;;;;;;;33.50;15.95;;;;;;;-2.92;77.17;103178.00;1810584;78;21325;-88
2022/12/20 06:56:09;;;;;;;31.30;15.95;;;;;;;-3.00;76.94;103174.27;1809041;78;20934;-88
2022/12/20 06:58:37;;;;;;;29.57;15.18;;;;;;;-3.07;76.85;103171.02;1800176;78;21063;-87
2022/12/20 07:01:04;;;;;;;30.95;16.82;;;;;;;-3.17;76.80;103168.10;1807002;78;20996;-87
2022/12/20 07:03:31;;;;;;;31.70;17.50;;;;;;;-3.24;77.00;103176.81;1803451;78;20984;-86
2022/12/20 07:05:57;;;;;;;24.50;15.93;;;;;;;-3.29;77.05;103173.17;1819001;78;21356;-85
2022/12/20 07:08:25;;;;;;;31.70;15.83;;;;;;;-3.31;77.47;103163.25;1817336;78;20918;-87
2022/12/20 07:10:53;;;;;;;30.70;16.52;;;;;;;-3.26;77.65;103165.19;1810184;78;20925;-86
2022/12/20 07:13:20;;;;;;;30.82;16.85;;;;;;;-3.21;77.75;103158.95;1805181;78;20928;-86
2022/12/20 07:15:47;;;;;;;29.72;15.35;;;;;;;-3.17;77.96;103157.84;1816612;78;21004;-87
2022/12/20 07:18:14;;;;;;;26.42;13.78;;;;;;;-3.09;78.18;103150.45;1808165;78;21108;-87
2022/12/20 07:20:40;;;;;;;26.35;16.20;;;;;;;-2.99;78.19;103151.23;1814655;78;20874;-86
2022/12/20 07:23:07;;;;;;;34.43;17.75;;;;;;;-2.87;78.12;103158.91;1816218;78;20921;-87
2022/12/20 07:25:33;;;;;;;39.98;19.20;;;;;;;-2.82;77.97;103148.02;1800990;79;21039;-87
2022/12/20 07:28:00;;;;;;;34.27;16.35;;;;;;;-2.73;77.93;103150.04;1806003;79;21024;-86
2022/12/20 07:30:26;;;;;;;38.63;19.12;;;;;;;-2.64;77.77;103156.78;1800419;78;21131;-86
2022/12/20 07:32:53;;;;;;;40.43;19.07;;;;;;;-2.58;77.55;103149.69;1813088;78;20906;-86
2022/12/20 07:35:20;;;;;;;34.63;18.40;;;;;;;-2.55;77.40;103146.83;1815236;78;21422;-87
2022/12/20 07:37:47;;;;;;;33.73;19.42;;;;;;;-2.51;77.44;103146.53;1801353;79;20909;-86
2022/12/20 07:40:15;;;;;;;30.92;16.30;;;;;;;-2.44;77.33;103144.64;1815277;78;20917;-87
2022/12/20 07:42:42;;;;;;;31.20;15.03;;;;;;;-2.41;77.14;103152.44;1812211;78;23715;-87
2022/12/20 07:45:09;;;;;;;41.53;21.17;;;;;;;-2.41;76.93;103147.72;1789176;79;20969;-85
2022/12/20 07:47:36;;;;;;;34.98;21.37;;;;;;;-2.38;76.77;103149.09;1806912;78;21466;-87
2022/12/20 07:50:03;;;;;;;30.55;17.75;;;;;;;-2.41;76.29;103142.16;1810887;78;20918;-87
2022/12/20 07:52:30;;;;;;;31.68;16.75;;;;;;;-2.45;76.30;103139.44;1814473;78;20988;-87
2022/12/20 07:55:03;;;;;;;30.40;16.90;;;;;;;-2.48;76.24;103132.50;1753113;78;23193;-86
2022/12/20 07:57:35;;;;;;;28.77;17.40;;;;;;;-2.48;76.25;103131.22;1819513;78;20987;-88
2022/12/20 08:00:09;;;;;;;28.52;15.85;;;;;;;-2.47;76.25;103122.67;1813914;76;20952;-89
2022/12/20 08:02:45;;;;;;;33.13;15.03;;;;;;;-2.46;76.54;103112.88;1815572;78;21039;-88
2022/12/20 08:05:16;;;;;;;19.48;12.80;;;;;;;-2.43;76.48;103111.69;1822878;77;26131;-89
2022/12/20 08:07:56;;;;;;;21.60;12.70;;;;;;;-2.41;76.58;103109.17;1806826;77;23925;-88
2022/12/20 08:10:36;;;;;;;19.37;11.85;;;;;;;-2.39;76.50;103103.68;1790330;79;20893;-88
2022/12/20 08:13:21;;;;;;;17.55;10.68;;;;;;;-2.38;76.35;103096.42;1801434;76;20867;-90
2022/12/20 08:15:51;;;;;;;19.23;9.75;;;;;;;-2.35;76.44;103096.55;1808705;77;20969;-88
2022/12/20 08:18:17;;;;;;;19.20;11.30;;;;;;;-2.31;76.29;103092.84;1773338;79;21166;-87
2022/12/20 08:20:45;;;;;;;20.25;11.08;;;;;;;-2.29;76.46;103094.15;1808622;78;21170;-86
2022/12/20 08:23:14;;;;;;;18.52;11.45;;;;;;;-2.25;76.40;103084.44;1815131;78;20949;-88
2022/12/20 08:25:41;;;;;;;23.67;13.78;;;;;;;-2.20;76.30;103085.88;1805030;78;20967;-88
2022/12/20 08:28:08;;;;;;;18.27;12.25;;;;;;;-2.15;76.32;103074.06;1819940;78;20850;-87
2022/12/20 08:30:35;;;;;;;18.25;11.20;;;;;;;-2.13;76.21;103069.44;1818347;78;20937;-88
2022/12/20 08:33:04;;;;;;;15.80;11.33;;;;;;;-2.11;75.62;103069.48;1815269;78;21128;-87
2022/12/20 08:35:32;;;;;;;22.60;11.80;;;;;;;-2.18;75.77;103062.38;1816425;78;20900;-88
2022/12/20 08:37:59;;;;;;;20.57;10.80;;;;;;;-2.21;75.54;103052.88;1802752;78;20976;-86
2022/12/20 08:40:27;;;;;;;20.82;12.07;;;;;;;-2.31;75.62;103055.58;1819235;78;20928;-87
2022/12/20 08:42:55;;;;;;;19.82;11.78;;;;;;;-2.33;75.98;103052.50;1816003;78;20940;-87
2022/12/20 08:45:24;;;;;;;17.92;11.50;;;;;;;-2.36;76.22;103042.97;1810495;78;21362;-89
2022/12/20 08:47:52;;;;;;;17.52;10.40;;;;;;;-2.36;76.27;103044.25;1812779;78;20920;-88
2022/12/20 08:50:19;;;;;;;18.42;12.10;;;;;;;-2.38;76.31;103042.46;1784183;78;21006;-89
2022/12/20 08:52:47;;;;;;;19.35;10.78;;;;;;;-2.41;76.58;103038.52;1819299;78;20874;-87
2022/12/20 08:55:15;;;;;;;18.85;10.82;;;;;;;-2.41;76.72;103034.25;1818538;78;21429;-88
2022/12/20 08:57:42;;;;;;;21.62;10.95;;;;;;;-2.41;76.87;103029.11;1814539;78;21203;-86
2022/12/20 09:00:15;;;;;;;19.73;10.58;;;;;;;-2.38;77.07;103027.95;1781928;78;20975;-89
2022/12/20 09:02:42;;;;;;;13.20;9.28;;;;;;;-2.35;77.07;103024.59;1819934;78;20980;-88
2022/12/20 09:05:09;;;;;;;15.70;10.58;;;;;;;-2.41;76.84;103019.25;1812280;78;20922;-89
2022/12/20 09:07:37;;;;;;;18.30;11.18;;;;;;;-2.49;77.01;103018.98;1813267;78;21059;-87
2022/12/20 09:10:04;;;;;;;22.05;12.40;;;;;;;-2.54;77.30;103018.84;1816168;78;21396;-87
2022/12/20 09:12:37;;;;;;;22.15;13.78;;;;;;;-2.58;77.24;103002.89;1813115;78;21472;-88
2022/12/20 09:15:05;;;;;;;12.80;9.23;;;;;;;-2.57;77.66;103000.77;1814487;78;20901;-88
2022/12/20 09:17:32;;;;;;;14.83;9.30;;;;;;;-2.56;77.83;103002.50;1810952;78;20906;-88
2022/12/20 09:19:59;;;;;;;14.63;9.08;;;;;;;-2.51;78.12;102997.54;1802947;78;20928;-87
2022/12/20 09:22:28;;;;;;;11.03;8.28;;;;;;;-2.42;77.93;103004.64;1813516;78;21237;-86
2022/12/20 09:24:55;;;;;;;16.00;9.00;;;;;;;-2.43;77.93;103005.48;1813691;78;20925;-87
2022/12/20 09:27:22;;;;;;;12.50;7.47;;;;;;;-2.40;78.02;102997.86;1802817;78;21400;-87
2022/12/20 09:29:48;;;;;;;10.03;6.78;;;;;;;-2.33;77.91;102994.69;1813939;78;20890;-88
2022/12/20 09:32:16;;;;;;;16.15;8.13;;;;;;;-2.30;77.51;102986.64;1813961;78;20882;-88
2022/12/20 09:34:43;;;;;;;14.70;8.88;;;;;;;-2.31;77.41;102984.05;1779192;79;21315;-88
2022/12/20 09:37:09;;;;;;;13.40;9.73;;;;;;;-2.32;77.57;102984.44;1802247;78;20945;-88
2022/12/20 09:39:36;;;;;;;15.28;9.93;;;;;;;-2.27;77.76;102978.56;1819628;78;20882;-86
2022/12/20 09:42:08;;;;;;;14.50;10.03;;;;;;;-2.23;77.54;102972.70;1816118;78;20917;-88
2022/12/20 09:44:39;;;;;;;15.93;8.48;;;;;;;-2.21;77.34;102966.78;1793878;79;21339;-89
2022/12/20 09:47:14;;;;;;;18.15;10.90;;;;;;;-2.18;77.41;102957.90;1811979;78;21222;-87
2022/12/20 09:49:44;;;;;;;18.02;9.33;;;;;;;-2.13;77.63;102955.47;1801089;78;21151;-85
2022/12/20 09:53:05;;;;;;;15.48;10.10;;;;;;;-2.10;77.84;102946.13;1821906;78;21051;-88
2022/12/20 09:55:43;;;;;;;17.07;11.40;;;;;;;-2.03;77.86;102943.75;1780981;78;21028;-86
2022/12/20 09:58:24;;;;;;;14.55;9.68;;;;;;;-1.89;78.06;102940.77;1808182;76;20907;-87
2022/12/20 10:00:53;;;;;;;15.15;10.55;;;;;;;-1.73;77.37;102941.20;1808224;78;21117;-88
2022/12/20 10:03:22;;;;;;;16.00;9.53;;;;;;;-1.60;77.21;102933.39;1788074;76;20894;-87
2022/12/20 10:05:59;;;;;;;21.25;10.78;;;;;;;-1.52;76.81;102934.06;1799575;78;20907;-89
2022/12/20 10:08:43;;;;;;;18.57;9.95;;;;;;;-1.44;76.25;102927.86;1813548;78;21573;-87
2022/12/20 10:11:33;;;;;;;18.92;11.83;;;;;;;-1.43;76.02;102923.58;1806714;78;20968;-87
2022/12/20 10:14:08;;;;;;;15.20;9.90;;;;;;;-1.44;76.16;102917.98;1817150;78;21065;-86
2022/12/20 10:16:43;;;;;;;16.60;11.25;;;;;;;-1.38;76.43;102910.02;1818765;76;21343;-83
2022/12/20 15:05:53;;;;;;;15.08;10.98;;;;;;;-0.71;67.74;102441.07;1683742;84;21523;-83
2022/12/20 15:08:32;;;;;;;18.85;11.35;;;;;;;-0.74;67.71;102444.47;1682323;84;21300;-86
2022/12/20 15:11:19;;;;;;;16.77;9.45;;;;;;;-0.74;67.57;102438.03;1625361;86;21037;-86
2022/12/20 15:13:51;;;;;;;15.93;11.10;;;;;;;-0.75;67.81;102448.33;1659915;84;20868;-87
2022/12/20 15:16:19;;;;;;;16.52;11.80;;;;;;;-0.77;67.77;102427.69;1680618;84;21005;-86
2022/12/20 15:18:53;;;;;;;13.83;9.95;;;;;;;-0.76;67.85;102434.98;1669874;84;21442;-88
2022/12/20 15:21:28;;;;;;;21.87;11.97;;;;;;;-0.73;67.82;102434.63;1686139;84;21891;-86
2022/12/20 15:24:01;;;;;;;19.00;10.48;;;;;;;-0.71;67.52;102435.52;1672918;84;20884;-85
2022/12/20 15:26:29;;;;;;;15.83;10.23;;;;;;;-0.69;67.26;102436.81;1680417;84;21015;-87
2022/12/20 15:28:56;;;;;;;15.40;10.40;;;;;;;-0.69;67.32;102432.95;1663774;85;20989;-87
2022/12/20 15:31:23;;;;;;;20.90;11.80;;;;;;;-0.65;67.26;102429.58;1666268;84;20907;-87
2022/12/20 15:33:50;;;;;;;15.32;10.38;;;;;;;-0.64;67.37;102430.91;1639100;85;21475;-87
2022/12/20 15:36:19;;;;;;;20.75;12.15;;;;;;;-0.60;67.19;102425.78;1681210;84;21132;-85
2022/12/20 15:48:35;;;;;;;19.07;11.18;;;;;;;-0.54;65.92;102410.42;1679012;84;20883;-85
2022/12/20 15:51:06;;;;;;;18.65;12.15;;;;;;;-0.49;65.05;102398.47;1683024;84;20872;-84
2022/12/20 15:53:32;;;;;;;21.62;14.03;;;;;;;-0.46;64.38;102400.67;1684885;84;20934;-84
2022/12/20 15:55:59;;;;;;;23.27;14.75;;;;;;;-0.45;64.16;102394.67;1677227;84;21002;-87
2022/12/20 15:58:27;;;;;;;27.45;14.85;;;;;;;-0.40;63.25;102388.72;1668343;84;21582;-86
2022/12/20 16:00:56;;;;;;;22.07;13.35;;;;;;;-0.43;62.62;102383.10;1666199;84;21327;-87
2022/12/20 16:03:25;;;;;;;24.52;13.25;;;;;;;-0.44;62.14;102372.36;1685577;84;21050;-87
2022/12/20 16:05:52;;;;;;;24.27;12.43;;;;;;;-0.49;62.08;102371.02;1665254;84;21046;-84
2022/12/20 16:08:19;;;;;;;19.32;11.93;;;;;;;-0.49;62.00;102370.13;1667511;84;21073;-87
2022/12/20 16:10:48;;;;;;;20.82;11.22;;;;;;;-0.51;61.84;102371.41;1640133;85;21154;-87
2022/12/20 16:13:23;;;;;;;21.07;11.25;;;;;;;-0.51;61.63;102375.27;1675756;84;21058;-86
2022/12/20 16:15:51;;;;;;;17.48;11.40;;;;;;;-0.52;61.58;102369.66;1683743;84;20886;-84
2022/12/20 16:18:18;;;;;;;16.95;10.40;;;;;;;-0.53;61.82;102366.66;1687453;84;20963;-84
2022/12/20 16:20:45;;;;;;;15.75;10.15;;;;;;;-0.51;61.64;102362.79;1681958;84;20902;-86
2022/12/20 16:23:21;;;;;;;17.70;10.30;;;;;;;-0.53;61.33;102361.50;1656769;84;20915;-87
2022/12/20 16:25:47;;;;;;;17.95;10.70;;;;;;;-0.52;61.12;102351.63;1664421;84;21207;-87
2022/12/20 16:28:14;;;;;;;22.00;12.88;;;;;;;-0.56;61.15;102351.13;1676579;84;21087;-88
2022/12/20 16:30:40;;;;;;;19.35;11.22;;;;;;;-0.59;61.13;102358.83;1683333;84;20952;-88
2022/12/20 16:33:19;;;;;;;23.20;10.98;;;;;;;-0.60;61.30;102357.52;1671198;84;21434;-87
2022/12/20 16:35:46;;;;;;;17.98;10.85;;;;;;;-0.62;61.26;102349.78;1652521;85;20898;-88
2022/12/20 16:38:12;;;;;;;17.05;10.55;;;;;;;-0.60;61.34;102354.94;1676001;84;21350;-88
2022/12/20 16:40:39;;;;;;;18.87;10.75;;;;;;;-0.62;61.31;102354.94;1679010;84;20874;-88
2022/12/20 16:43:12;;;;;;;16.93;9.03;;;;;;;-0.58;61.48;102356.69;1686650;84;20995;-87
2022/12/20 16:45:38;;;;;;;21.25;9.78;;;;;;;-0.74;60.74;102336.28;1682026;84;21088;-86
2022/12/20 16:48:05;;;;;;;15.18;9.03;;;;;;;-0.58;60.78;102353.25;1673711;84;21061;-86
2022/12/20 16:50:32;;;;;;;17.80;10.58;;;;;;;-0.58;60.95;102345.52;1686354;84;21158;-87
2022/12/20 16:52:59;;;;;;;15.53;10.18;;;;;;;-0.60;60.84;102341.66;1671005;84;21011;-85
2022/12/20 16:55:26;;;;;;;17.23;10.98;;;;;;;-0.58;60.76;102354.11;1673285;84;21458;-87
2022/12/20 16:57:53;;;;;;;15.43;9.20;;;;;;;-0.60;60.78;102348.49;1675296;84;20970;-86
2022/12/20 17:00:22;;;;;;;14.28;10.55;;;;;;;-0.58;60.77;102344.23;1662208;85;21001;-86
2022/12/20 17:02:53;;;;;;;20.95;9.45;;;;;;;-0.59;60.89;102341.23;1683478;84;21245;-87
2022/12/20 17:05:24;;;;;;;17.27;10.90;;;;;;;-0.55;60.75;102345.58;1619041;86;21493;-86
2022/12/20 17:07:50;;;;;;;16.80;11.73;;;;;;;-0.54;60.73;102338.28;1671311;84;20913;-87
2022/12/20 17:10:21;;;;;;;16.55;10.88;;;;;;;-0.51;60.62;102340.48;1671522;84;21136;-86
2022/12/20 17:12:49;;;;;;;20.43;12.20;;;;;;;-0.49;60.57;102342.67;1660720;84;20934;-86
2022/12/20 17:15:26;;;;;;;19.62;11.57;;;;;;;-0.47;60.66;102338.80;1678136;84;21303;-86
2022/12/20 17:17:54;;;;;;;18.55;11.53;;;;;;;-0.44;60.74;102330.70;1676776;84;20950;-87
2022/12/20 17:20:29;;;;;;;19.27;12.03;;;;;;;-0.40;60.47;102330.73;1683681;84;20916;-86
2022/12/20 17:22:55;;;;;;;27.87;11.33;;;;;;;-0.35;60.11;102329.09;1675373;84;21644;-87
2022/12/20 17:25:28;;;;;;;20.40;11.57;;;;;;;-0.33;59.84;102324.40;1655633;85;21557;-86
2022/12/20 17:27:55;;;;;;;20.68;11.20;;;;;;;-0.32;59.81;102321.39;1679509;84;21325;-85
2022/12/20 17:30:23;;;;;;;19.37;11.35;;;;;;;-0.31;59.47;102316.66;1681185;84;20922;-86
2022/12/20 17:32:52;;;;;;;20.65;11.97;;;;;;;-0.33;59.36;102315.38;1686597;84;20961;-85
2022/12/20 17:35:29;;;;;;;16.50;9.90;;;;;;;-0.32;59.43;102305.50;1685570;84;20928;-87
2022/12/20 17:37:56;;;;;;;25.30;11.40;;;;;;;-0.32;59.38;102296.91;1686945;84;21106;-86
2022/12/20 17:40:25;;;;;;;14.85;9.88;;;;;;;-0.28;59.39;102295.67;1685523;84;21195;-87
2022/12/20 17:42:52;;;;;;;17.50;10.43;;;;;;;-0.27;59.31;102282.34;1684183;84;20926;-86
2022/12/20 17:45:27;;;;;;;22.45;10.43;;;;;;;-0.22;59.28;102285.87;1680818;84;21433;-86
2022/12/20 17:47:54;;;;;;;15.55;10.58;;;;;;;-0.19;58.93;102281.16;1680270;84;28023;-87
2022/12/20 17:50:20;;;;;;;10.13;7.95;;;;;;;-0.15;58.72;102276.48;1679844;84;21464;-88
2022/12/20 17:52:47;;;;;;;11.80;8.55;;;;;;;-0.13;58.01;102275.66;1649921;85;21492;-87
2022/12/20 17:55:20;;;;;;;17.32;9.68;;;;;;;-0.17;57.50;102270.02;1686201;84;21067;-85
2022/12/20 17:57:47;;;;;;;22.37;12.65;;;;;;;-0.16;57.62;102267.86;1666704;84;20973;-85
2022/12/20 18:00:21;;;;;;;16.00;9.68;;;;;;;-0.15;57.32;102263.59;1667611;84;20967;-85
2022/12/20 18:02:48;;;;;;;13.50;9.23;;;;;;;-0.14;57.12;102256.29;1637693;86;20969;-85
2022/12/20 18:05:15;;;;;;;13.40;9.30;;;;;;;-0.14;56.84;102259.73;1685912;85;21198;-85
2022/12/20 18:07:41;;;;;;;14.43;9.13;;;;;;;-0.14;56.60;102253.28;1621499;86;20900;-86
2022/12/20 18:10:08;;;;;;;15.50;9.80;;;;;;;-0.13;56.60;102251.16;1660283;84;20951;-86
2022/12/20 18:12:35;;;;;;;14.95;9.53;;;;;;;-0.13;56.54;102251.16;1676385;84;21434;-87
2022/12/20 18:15:02;;;;;;;15.58;10.03;;;;;;;-0.11;56.42;102245.59;1673321;84;21543;-84
2022/12/20 18:17:30;;;;;;;14.90;9.15;;;;;;;-0.15;56.56;102245.12;1682243;84;21149;-87
2022/12/20 18:19:58;;;;;;;15.58;9.90;;;;;;;-0.12;56.33;102242.99;1679549;84;20991;-86
2022/12/20 18:22:25;;;;;;;15.13;9.83;;;;;;;-0.14;56.34;102233.09;1657875;86;20975;-86
2022/12/20 18:24:51;;;;;;;14.30;9.68;;;;;;;-0.13;56.29;102234.83;1670455;84;21055;-87
2022/12/20 18:27:18;;;;;;;18.15;10.88;;;;;;;-0.14;56.43;102224.06;1651037;86;21502;-85
2022/12/20 18:29:45;;;;;;;15.88;9.95;;;;;;;-0.13;56.48;102229.67;1621571;86;21228;-86
2022/12/20 18:32:12;;;;;;;14.90;10.58;;;;;;;-0.13;56.39;102224.52;1657057;86;20997;-86
2022/12/20 18:34:40;;;;;;;18.27;10.20;;;;;;;-0.14;56.37;102226.20;1656678;86;20930;-86
2022/12/20 18:37:07;;;;;;;25.60;11.65;;;;;;;-0.13;56.26;102229.24;1656414;86;20952;-85
2022/12/20 18:39:34;;;;;;;15.85;10.13;;;;;;;-0.13;56.18;102226.66;1623371;86;20927;-85
2022/12/20 18:42:00;;;;;;;15.50;9.63;;;;;;;-0.10;56.46;102224.54;1632951;86;21778;-87
2022/12/20 18:44:27;;;;;;;15.65;8.95;;;;;;;-0.07;56.54;102228.02;1678586;84;21436;-86
2022/12/20 18:46:54;;;;;;;14.10;9.30;;;;;;;-0.07;56.49;102220.29;1637025;86;20920;-83
2022/12/20 18:49:21;;;;;;;14.35;9.48;;;;;;;0.00;56.33;102230.23;1668999;84;20952;-86
2022/12/20 18:51:48;;;;;;;19.40;10.98;;;;;;;0.01;56.24;102225.94;1655605;85;20996;-86
2022/12/20 18:54:15;;;;;;;11.28;7.70;;;;;;;0.01;56.40;102221.64;1669869;84;21396;-85
2022/12/20 18:56:42;;;;;;;13.75;8.58;;;;;;;0.04;56.51;102228.10;1679804;84;20926;-87
2022/12/20 18:59:08;;;;;;;18.12;10.55;;;;;;;0.03;56.57;102219.08;1680878;84;20944;-85
2022/12/20 19:01:35;;;;;;;15.32;9.00;;;;;;;0.01;56.61;102219.05;1666885;84;20921;-86
2022/12/20 19:04:03;;;;;;;16.80;11.05;;;;;;;-0.04;56.77;102219.02;1686673;84;20934;-85
2022/12/20 19:06:30;;;;;;;16.90;10.72;;;;;;;-0.03;56.94;102216.00;1675046;84;21159;-86
